Accueil
METAR-TAF:

METAR-TAF

Aéroports :

McAlester, Oklahoma, États-Unis

latitude: 34-52-56N, longitude: 095-46-59W, altitude: 234 m

Observation

Le bulletin a été fait il y a 9 minutes, à 19:11 UTC
Vent 6 kt de sud
Température 33°C
Humidité 53%
Pression 1016 hPa
Visibilité: 16.1 km
Quelques nuages à une hauteur de 6000 ft
orage à proximité

METAR: KMLC 151911Z AUTO 18006KT 10SM VCTS FEW060 33/22 A2999 RMK AO2 LTG DSNT W T03330222

Heure: 14:20 (19:20 UTC)

Prévision

Le bulletin a été fait il y a 8 minutes, à 19:12 UTC
Prévision valable du 15 à 19 UTC au 16 à 18 UTC
Vent 8 kt de sud/sud-ouest
Visibilité: 10 km
Nuages épars à une hauteur de 5000 ft, Cumulonimbus.
Nuages épars à une hauteur de 25000 ft
orage à proximité
A partir de 16 à 0200 UTC
Vent 5 kt de sud/sud-est
Visibilité: 10 km
Nuages fragmentés à une hauteur de 25000 ft

TAF: KMLC 151912Z 1519/1618 20008KT P6SM VCTS SCT050CB SCT250 FM160200 16005KT P6SM BKN250

Observations et prévisions météorologiques de plus de 4000 aéroports (messages METAR et TAF).

Les stations disponibles sont représentées par des disques jaunes et rouges sur la carte.

Passer la souris dessus pour voir le nom de la station.

Cliquer dessus pour voir les observations et prévisions météorologiques.

Pour changer de carte: cliquez sur les boutons verts avec une croix noire pour zoomer, sur le bouton vert avec un tiret pour effectuer un zoom arrière, ou sur les flèches vertes pour les cartes adjacentes.


METAR-TAF: